Flight Track Log - Related Links

Times and Time Zones

All times are in EST time to prevent confusion due to time zone crossing. See the USC311 flight status page for this flight to view local times or setup timezone preferences in your user account.

Time Position Orientation Groundspeed Altitude Reporting Facility
EST Latitude Longitude Course Direction KTS MPH feet Rate Location/Type
Sat 03:03:13 AM 42.7358 -87.9836 194° South 188 216 3,900  Level Chicago Center
Sat 03:04:00 AM 42.6810 -87.9880 194° South  Level Estimated
Sat 03:04:13 AM 42.6853 -87.9989 193° South 188 216 3,900  Level Chicago Center
Sat 03:05:00 AM 42.6361 -87.9992 190° South  Level FlightAware Approximate
Sat 03:05:13 AM 42.6350 -88.0147 193° South 187 215 3,900  Level Chicago Center
Sat 03:06:00 AM 42.5912 -88.0105 190° South  Level FlightAware Approximate
Sat 03:06:14 AM 42.5831 -88.0336 195° South 190 219 3,900  Level Chicago Center
Sat 03:07:00 AM 42.5462 -88.0218 190° South  Level FlightAware Approximate
Sat 03:07:14 AM 42.5333 -88.0481 192° South 186 214 3,900  Level Chicago Center
Sat 03:08:00 AM 42.5021 -88.0376 194° South  Level Estimated
Sat 03:08:14 AM 42.4814 -88.0661 194° South 189 217 3,900  Level Chicago Center
Sat 03:09:14 AM 42.4311 -88.0806 192° South 187 215 3,900  Level Chicago Center
Sat 03:10:14 AM 42.3806 -88.0969 193° South 187 215 3,900  Level Chicago Center
Sat 03:11:14 AM 42.3239 -88.1153 193° South 187 215 3,900  Level Chicago Center
Sat 03:12:15 AM 42.2728 -88.1328 194° South 188 216 3,900  Level Chicago Center
Sat 03:13:15 AM 42.2236 -88.1483 193° South 185 213 3,900 -50 Level Chicago Center
Sat 03:14:15 AM 42.1744 -88.1639 193° South 182 209 3,800 -600 Descending Chicago Center
Sat 03:15:15 AM 42.1239 -88.1811 194° South 183 211 2,700 -700 Descending Chicago Center
Sat 03:16:15 AM 42.0686 -88.1978 193° South 194 223 2,400 -150 Descending Chicago Center
Sat 03:17:15 AM 42.0192 -88.2136 193° South 192 221 2,400  Level Chicago Center
Sat 03:18:16 AM 41.9711 -88.2286 193° South 185 213 2,400 -595 Level Chicago Center
Sat 03:19:16 AM 41.9281 -88.2431 194° South 173 199 1,200 -1,200 Descending Chicago Center
Sat 03:21:00 AM 41.9071 -88.2480 180° South  Level Estimated

Login

Don't have an account? Register now (free) for customized features, flight alerts, and more!